Stillwater, Oklahoma
Current Conditions -  °F | °C
As of 6:53 PM on Saturday 20 Dec 2014 (Local Time) from KSWO Reporting Station
Overcast Overcast  
Wind Chill: 39°   Ceiling: 1600
Heat Index: 44°   Visibility: 10mi
Dew Point: 36°   Wind: 9mph
Humidity: 73%   Direction: 200°SSW
Pressure: 30.16"   Gusts: NA
Location:  36.12°N, 97.06°W
Report Text: KSWO 210053Z 20008KT 10SM OVC016 07/02 A3016 RMK AO2 SLP214 T00670022
Loading
Personal Weather Stations






























Interactive Weather Map New forecast layout! Learn more

10-Day Weather Forecast

Advertisements
Track Severe Weather on mobile